createdAt,value
2023-03-11T00:00:27.203Z,3.807983
2023-03-11T00:01:34.947Z,3.797913
2023-03-11T00:02:43.604Z,3.757629
2023-03-11T00:03:53.403Z,3.737488
2023-03-11T00:05:02.127Z,3.727417
2023-03-11T00:06:11.801Z,3.687134
2023-03-11T00:07:20.531Z,3.646851
2023-03-11T00:08:29.361Z,3.626709
2023-03-11T00:09:39.031Z,3.616638
2023-03-11T00:10:46.729Z,3.586426
2023-03-11T00:11:56.416Z,3.546143
2023-03-11T00:13:06.163Z,3.526001
2023-03-11T00:14:13.858Z,3.526001
2023-03-11T00:15:23.518Z,3.475647
2023-03-11T00:16:32.240Z,3.475647
2023-03-11T00:17:41.881Z,3.445435
2023-03-11T00:18:50.630Z,3.415222
2023-03-11T00:20:00.372Z,3.374939
2023-03-11T00:21:10.078Z,3.364868
2023-03-11T00:22:19.743Z,3.324585
2023-03-11T00:23:26.457Z,3.294373
2023-03-11T00:24:36.170Z,3.294373
2023-03-11T00:25:43.835Z,3.254089
2023-03-11T00:26:53.552Z,3.254089
2023-03-11T00:28:02.255Z,3.213806
2023-03-11T00:29:10.932Z,3.163452
2023-03-11T00:30:19.744Z,3.13324
2023-03-11T00:31:29.446Z,3.13324
2023-03-11T00:32:39.206Z,3.13324
2023-03-11T00:33:48.869Z,3.143311
2023-03-11T00:34:57.568Z,3.113098
2023-03-11T00:36:07.293Z,3.13324
2023-03-11T00:37:15.923Z,3.103027
2023-03-11T00:38:23.719Z,3.113098
2023-03-11T00:39:33.424Z,3.103027
2023-03-11T00:40:42.164Z,3.082886
2023-03-11T00:41:51.844Z,3.072815
2023-03-11T00:43:01.560Z,3.082886
2023-03-11T00:44:09.378Z,3.042603
2023-03-11T00:45:19.176Z,3.032532
2023-03-11T00:46:27.926Z,3.01239
2023-03-11T00:47:37.585Z,3.01239
2023-03-11T00:48:47.392Z,3.01239
2023-03-11T00:49:55.056Z,3.042603
2023-03-11T00:51:03.760Z,3.032532
2023-03-11T00:52:13.498Z,3.032532
2023-03-11T00:53:22.204Z,3.01239
2023-03-11T00:54:31.975Z,2.972107
2023-03-11T00:55:40.652Z,2.972107
2023-03-11T00:56:49.359Z,2.972107
2023-03-11T00:57:58.044Z,2.901611
2023-03-11T00:59:05.775Z,2.901611
2023-03-11T01:00:15.534Z,2.921753
2023-03-11T01:01:25.312Z,2.921753
2023-03-11T01:02:34.904Z,2.891541
2023-03-11T01:03:44.570Z,2.871399
2023-03-11T01:04:53.447Z,2.831116
2023-03-11T01:06:01.213Z,2.821045
2023-03-11T01:07:11.435Z,2.831116
2023-03-11T01:08:18.645Z,2.871399
2023-03-11T01:09:27.346Z,2.891541
2023-03-11T01:10:37.076Z,2.951965
2023-03-11T01:11:43.754Z,2.951965
2023-03-11T01:12:53.504Z,2.972107
2023-03-11T01:14:02.252Z,2.931824
2023-03-11T01:15:12.015Z,2.931824
2023-03-11T01:16:21.934Z,2.921753
2023-03-11T01:17:31.689Z,2.921753
2023-03-11T01:18:40.349Z,2.921753
2023-03-11T01:19:50.035Z,2.931824
2023-03-11T01:20:58.739Z,2.972107
2023-03-11T01:22:08.642Z,2.972107
2023-03-11T01:23:17.331Z,2.951965
2023-03-11T01:24:26.090Z,2.901611
2023-03-11T01:25:36.839Z,2.891541
2023-03-11T01:26:46.593Z,2.861328
2023-03-11T01:27:56.284Z,2.831116
2023-03-11T01:29:05.986Z,2.831116
2023-03-11T01:30:13.887Z,2.790833
2023-03-11T01:31:23.658Z,2.750549
2023-03-11T01:32:32.311Z,2.740479
2023-03-11T01:33:39.954Z,2.770691
2023-03-11T01:34:49.742Z,2.740479
2023-03-11T01:35:59.516Z,2.720337
2023-03-11T01:37:08.075Z,2.710266
2023-03-11T01:38:17.766Z,2.680054
2023-03-11T01:39:25.528Z,2.690125
2023-03-11T01:40:35.205Z,2.690125
2023-03-11T01:41:43.857Z,2.690125
2023-03-11T01:42:52.575Z,2.690125
2023-03-11T01:44:02.293Z,2.680054
2023-03-11T01:45:11.158Z,2.669983
2023-03-11T01:46:20.912Z,2.680054
2023-03-11T02:00:13.430Z,2.569275
2023-03-11T02:01:23.050Z,2.609558
2023-03-11T02:02:31.709Z,2.569275
2023-03-11T02:03:40.901Z,2.569275
2023-03-11T02:04:50.614Z,2.559204
2023-03-11T02:05:59.304Z,2.569275
2023-03-11T02:07:07.988Z,2.539062
2023-03-11T02:08:17.700Z,2.528992
2023-03-11T02:09:27.354Z,2.528992
2023-03-11T02:10:37.057Z,2.528992
2023-03-11T02:11:46.749Z,2.488708
2023-03-11T02:12:56.441Z,2.438354
2023-03-11T02:14:06.122Z,2.428284
2023-03-11T02:15:13.830Z,2.418213
2023-03-11T02:16:23.805Z,2.418213
2023-03-11T02:17:33.351Z,2.418213
2023-03-11T02:18:42.005Z,2.388
2023-03-11T02:19:51.700Z,2.388
2023-03-11T02:21:00.404Z,2.418213
2023-03-11T02:22:09.072Z,2.418213
2023-03-11T02:23:16.766Z,2.388
2023-03-11T02:24:26.437Z,2.418213
2023-03-11T02:25:34.163Z,2.428284
2023-03-11T02:26:43.829Z,2.37793
2023-03-11T02:27:53.540Z,2.37793
2023-03-11T02:29:02.206Z,2.357788
2023-03-11T02:30:11.942Z,2.327576
2023-03-11T02:31:19.642Z,2.317505
2023-03-11T02:32:29.445Z,2.317505
2023-03-11T02:33:39.012Z,2.327576
2023-03-11T02:34:46.830Z,2.287292
2023-03-11T02:35:56.893Z,2.277222
2023-03-11T02:37:05.879Z,2.277222
2023-03-11T02:38:15.765Z,2.277222
2023-03-11T02:39:25.671Z,2.247009
2023-03-11T02:40:35.699Z,2.216797
2023-03-11T02:41:44.610Z,2.216797
2023-03-11T02:42:53.547Z,2.247009
2023-03-11T02:44:02.428Z,2.25708
2023-03-11T02:45:12.068Z,2.247009
2023-03-11T02:46:21.872Z,2.247009
2023-03-11T02:47:29.506Z,2.247009
2023-03-11T02:48:39.221Z,2.25708
2023-03-11T02:49:47.873Z,2.236938
2023-03-11T02:50:57.562Z,2.216797
2023-03-11T02:52:07.241Z,2.216797
2023-03-11T02:53:15.975Z,2.176514
2023-03-11T02:54:25.710Z,2.146301
2023-03-11T02:55:35.430Z,2.146301
2023-03-11T02:56:44.165Z,2.13623
2023-03-11T02:57:53.873Z,2.13623
2023-03-11T02:59:03.550Z,2.106018
2023-03-11T03:00:13.269Z,2.095947
2023-03-11T03:01:23.047Z,2.106018
2023-03-11T03:02:31.720Z,2.12616
2023-03-11T03:03:41.470Z,2.12616
2023-03-11T03:04:50.209Z,2.095947
2023-03-11T03:05:57.917Z,2.095947
2023-03-11T03:07:07.619Z,2.065735
2023-03-11T03:08:17.332Z,2.065735
2023-03-11T03:09:25.991Z,2.095947
2023-03-11T03:10:35.702Z,2.095947
2023-03-11T03:11:44.551Z,2.075806
2023-03-11T03:12:54.198Z,2.065735
2023-03-11T03:14:02.899Z,2.035522
2023-03-11T03:15:11.585Z,2.015381
2023-03-11T03:16:22.500Z,2.015381
2023-03-11T03:17:31.232Z,2.015381
2023-03-11T03:18:39.861Z,1.985168
2023-03-11T03:19:49.565Z,1.965027
2023-03-11T03:20:57.247Z,1.914673
2023-03-11T03:22:06.933Z,1.914673
2023-03-11T03:23:16.722Z,1.88446
2023-03-11T03:24:25.388Z,1.87439
2023-03-11T03:25:35.085Z,1.88446
2023-03-11T03:26:43.784Z,1.88446
2023-03-11T03:27:52.563Z,1.87439
2023-03-11T03:29:02.235Z,1.87439
2023-03-11T03:30:10.936Z,1.844177
2023-03-11T03:31:20.709Z,1.844177
2023-03-11T03:32:29.370Z,1.844177
2023-03-11T03:33:38.035Z,1.844177
2023-03-11T03:34:47.737Z,1.803894
2023-03-11T03:35:57.474Z,1.803894
2023-03-11T03:37:07.233Z,1.783752
2023-03-11T03:38:16.922Z,1.803894
2023-03-11T03:39:24.586Z,1.763611
2023-03-11T03:40:34.283Z,1.763611
2023-03-11T03:41:43.939Z,1.733398
2023-03-11T03:42:51.626Z,1.703186
2023-03-11T03:44:01.406Z,1.743469
2023-03-11T03:45:10.079Z,1.773682
2023-03-11T03:46:19.822Z,1.783752
2023-03-11T03:47:29.436Z,1.773682
2023-03-11T03:48:37.107Z,1.783752
2023-03-11T03:49:46.777Z,1.783752
2023-03-11T03:50:56.301Z,1.763611
2023-03-11T03:52:05.066Z,1.763611
2023-03-11T03:53:14.766Z,1.803894
2023-03-11T03:54:23.434Z,1.773682
2023-03-11T03:55:32.136Z,1.733398
2023-03-11T03:56:41.848Z,1.743469
2023-03-11T03:57:49.553Z,1.713257
2023-03-11T03:58:59.217Z,1.703186
2023-03-11T04:00:08.860Z,1.713257
2023-03-11T04:01:17.579Z,1.713257
2023-03-11T04:02:27.308Z,1.743469
2023-03-11T04:03:36.009Z,1.733398
2023-03-11T04:04:44.614Z,1.703186
2023-03-11T04:05:54.330Z,1.733398
2023-03-11T04:07:02.345Z,1.733398
2023-03-11T04:08:12.020Z,1.743469
2023-03-11T04:09:21.731Z,1.743469
2023-03-11T04:10:29.372Z,1.743469
2023-03-11T04:11:39.068Z,1.733398
2023-03-11T04:12:46.841Z,1.713257
2023-03-11T04:13:55.501Z,1.733398
2023-03-11T04:15:05.212Z,1.743469
2023-03-11T04:16:13.981Z,1.733398
2023-03-11T04:17:23.735Z,1.733398
2023-03-11T04:18:33.424Z,1.703186
2023-03-11T04:19:41.083Z,1.672974
2023-03-11T04:20:50.780Z,1.683044
2023-03-11T04:22:00.603Z,1.662903
2023-03-11T04:23:08.214Z,1.672974
2023-03-11T04:24:17.864Z,1.672974
2023-03-11T04:25:26.602Z,1.672974
2023-03-11T04:26:35.261Z,1.662903
2023-03-11T04:27:44.940Z,1.63269
2023-03-11T04:28:54.612Z,1.662903
2023-03-11T04:30:03.291Z,1.662903
2023-03-11T04:31:12.974Z,1.662903
2023-03-11T04:32:20.786Z,1.63269
2023-03-11T04:33:30.441Z,1.602478
2023-03-11T04:34:39.098Z,1.602478
2023-03-11T04:35:47.804Z,1.562195
2023-03-11T04:36:57.453Z,1.552124
2023-03-11T04:38:05.147Z,1.562195
2023-03-11T04:39:13.798Z,1.552124
2023-03-11T04:40:23.510Z,1.552124
2023-03-11T04:41:33.205Z,1.552124
2023-03-11T04:42:42.848Z,1.521912
2023-03-11T04:43:51.554Z,1.521912
2023-03-11T04:44:59.217Z,1.50177
2023-03-11T04:46:08.954Z,1.50177
2023-03-11T04:47:18.571Z,1.521912
2023-03-11T04:48:27.267Z,1.521912
2023-03-11T04:49:36.960Z,1.521912
2023-03-11T04:50:46.732Z,1.521912
2023-03-11T04:51:56.407Z,1.491699
2023-03-11T04:53:04.092Z,1.50177
2023-03-11T04:54:11.808Z,1.521912
2023-03-11T04:55:21.497Z,1.50177
2023-03-11T04:56:30.216Z,1.50177
2023-03-11T04:57:39.922Z,1.552124
2023-03-11T04:58:49.570Z,1.562195
2023-03-11T04:59:57.228Z,1.592407
2023-03-11T05:01:05.918Z,1.62262
2023-03-11T05:02:14.574Z,1.662903
2023-03-11T05:03:22.337Z,1.683044
2023-03-11T05:04:33.030Z,1.683044
2023-03-11T05:05:41.641Z,1.733398
2023-03-11T05:06:50.355Z,1.733398
2023-03-11T05:08:00.143Z,1.743469
2023-03-11T05:09:07.807Z,1.743469
2023-03-11T05:10:17.462Z,1.763611
2023-03-11T05:11:26.143Z,1.743469
2023-03-11T05:12:34.908Z,1.763611
2023-03-11T05:13:44.703Z,1.773682
2023-03-11T05:14:53.455Z,1.773682
2023-03-11T05:16:03.124Z,1.773682
2023-03-11T05:17:12.842Z,1.773682
2023-03-11T05:18:21.603Z,1.803894
2023-03-11T05:19:31.374Z,1.783752
2023-03-11T05:20:41.070Z,1.813965
2023-03-11T05:21:48.786Z,1.813965
2023-03-11T05:22:58.508Z,1.854248
2023-03-11T05:24:08.175Z,1.844177
2023-03-11T05:25:16.864Z,1.854248
2023-03-11T05:26:26.536Z,1.88446
2023-03-11T05:27:34.193Z,1.88446
2023-03-11T05:28:43.980Z,1.87439
2023-03-11T05:29:53.692Z,1.88446
2023-03-11T05:31:01.470Z,1.88446
2023-03-11T05:32:10.042Z,1.88446
2023-03-11T05:33:18.737Z,1.88446
2023-03-11T05:34:27.404Z,1.894531
2023-03-11T05:35:37.096Z,1.894531
2023-03-11T05:36:45.772Z,1.894531
2023-03-11T05:37:55.489Z,1.914673
2023-03-11T05:39:04.198Z,1.894531
2023-03-11T05:40:11.852Z,1.914673
2023-03-11T05:41:21.560Z,2.106018
2023-03-11T05:42:30.231Z,2.12616
2023-03-11T05:43:38.939Z,2.13623
2023-03-11T05:44:48.650Z,2.106018
2023-03-11T05:45:57.396Z,2.065735
2023-03-11T05:47:07.059Z,1.995239
2023-03-11T05:48:15.814Z,1.985168
2023-03-11T05:49:25.511Z,1.954956
2023-03-11T05:50:35.196Z,1.894531
2023-03-11T05:51:43.851Z,1.88446
2023-03-11T05:52:52.556Z,1.914673
2023-03-11T05:54:02.306Z,1.87439
2023-03-11T05:55:09.954Z,1.854248
2023-03-11T05:56:19.669Z,1.87439
2023-03-11T05:57:28.330Z,1.854248
2023-03-11T05:58:37.020Z,1.87439
2023-03-11T05:59:46.684Z,1.854248
2023-03-11T06:00:54.387Z,1.844177
2023-03-11T06:02:04.104Z,1.813965
2023-03-11T06:03:12.758Z,1.803894
2023-03-11T06:04:22.533Z,1.783752
2023-03-11T06:05:32.309Z,1.803894
2023-03-11T06:06:40.986Z,1.803894
2023-03-11T06:07:48.662Z,1.813965
2023-03-11T06:08:58.366Z,1.813965
2023-03-11T06:10:06.217Z,1.803894
2023-03-11T06:11:14.864Z,1.783752
2023-03-11T06:12:24.552Z,1.773682
2023-03-11T06:13:33.238Z,1.773682
2023-03-11T06:14:42.931Z,1.763611
2023-03-11T06:15:51.573Z,1.763611
2023-03-11T06:17:01.353Z,1.733398
2023-03-11T06:18:09.046Z,1.713257
2023-03-11T06:19:18.856Z,1.713257
2023-03-11T06:20:28.519Z,1.713257
2023-03-11T06:21:38.234Z,1.683044
2023-03-11T06:22:47.959Z,1.683044
2023-03-11T06:23:56.692Z,1.683044
2023-03-11T06:25:04.368Z,1.683044
2023-03-11T06:26:14.248Z,1.672974
2023-03-11T06:27:22.974Z,1.672974
2023-03-11T06:28:31.649Z,1.662903
2023-03-11T06:29:41.367Z,1.672974
2023-03-11T06:30:50.008Z,1.672974
2023-03-11T06:31:59.717Z,1.672974
2023-03-11T06:33:08.354Z,1.662903
2023-03-11T06:34:17.080Z,1.662903
2023-03-11T06:35:26.742Z,1.63269
2023-03-11T06:36:35.462Z,1.683044
2023-03-11T06:37:45.164Z,1.733398
2023-03-11T06:38:54.871Z,1.743469
2023-03-11T06:40:03.548Z,1.773682
2023-03-11T06:41:13.222Z,1.763611
2023-03-11T06:42:21.872Z,1.743469
2023-03-11T06:43:29.582Z,1.743469
2023-03-11T06:44:39.333Z,1.743469
2023-03-11T06:45:48.094Z,1.773682
2023-03-11T06:46:56.630Z,1.763611
2023-03-11T06:48:06.348Z,1.783752
2023-03-11T06:49:16.043Z,1.743469
2023-03-11T06:50:24.757Z,1.713257
2023-03-11T06:51:34.441Z,1.703186
2023-03-11T06:52:42.133Z,1.703186
2023-03-11T06:53:51.873Z,1.713257
2023-03-11T06:55:01.581Z,1.773682
2023-03-11T06:56:11.339Z,1.803894
2023-03-11T06:57:21.038Z,1.813965
2023-03-11T06:58:30.718Z,1.844177
2023-03-11T06:59:39.373Z,1.844177
2023-03-11T07:00:49.098Z,1.813965
2023-03-11T07:01:56.751Z,1.88446
2023-03-11T07:03:06.531Z,1.87439
2023-03-11T07:04:16.287Z,1.944885
2023-03-11T07:05:25.961Z,1.844177
2023-03-11T07:06:35.670Z,1.783752
2023-03-11T07:07:45.335Z,1.844177
2023-03-11T07:08:53.119Z,1.894531
2023-03-11T07:10:02.794Z,1.944885
2023-03-11T07:11:12.519Z,1.995239
2023-03-11T07:12:22.187Z,1.965027
2023-03-11T07:13:31.870Z,1.88446
2023-03-11T07:14:40.567Z,1.854248
2023-03-11T07:15:50.225Z,1.844177
2023-03-11T07:16:58.925Z,1.854248
2023-03-11T07:18:07.611Z,1.944885
2023-03-11T07:19:17.748Z,2.015381
2023-03-11T07:20:27.374Z,2.106018
2023-03-11T07:21:36.082Z,2.196655
2023-03-11T07:22:45.808Z,2.236938
2023-03-11T07:23:53.468Z,2.317505
2023-03-11T07:25:03.241Z,2.388
2023-03-11T07:26:14.293Z,2.488708
2023-03-11T07:27:23.230Z,2.539062
2023-03-11T07:28:32.295Z,2.680054
2023-03-11T07:29:40.020Z,2.680054
2023-03-11T07:30:48.668Z,2.710266
2023-03-11T07:31:58.484Z,2.740479
2023-03-11T07:33:06.137Z,2.851257
2023-03-11T07:34:15.782Z,2.891541
2023-03-11T07:35:24.472Z,2.901611
2023-03-11T07:36:34.156Z,2.690125
2023-03-11T07:37:43.820Z,2.468567
2023-03-11T07:38:52.566Z,2.236938
2023-03-11T07:40:02.232Z,2.065735
2023-03-11T07:41:11.902Z,2.055664
2023-03-11T07:42:20.726Z,2.035522
2023-03-11T07:43:30.350Z,2.075806
2023-03-11T07:44:39.113Z,2.236938
2023-03-11T07:45:46.783Z,2.347717
2023-03-11T07:46:56.478Z,2.498779
2023-03-11T07:48:04.209Z,2.680054
2023-03-11T07:49:14.027Z,2.901611
2023-03-11T07:50:23.694Z,3.193665
2023-03-11T07:51:31.434Z,3.364868
2023-03-11T07:52:41.163Z,3.495789
2023-03-11T07:53:49.825Z,3.626709
2023-03-11T07:54:58.607Z,3.757629
2023-03-11T07:56:07.324Z,3.807983
2023-03-11T07:57:16.031Z,3.918762
2023-03-11T07:58:24.704Z,4.01947
2023-03-11T07:59:34.422Z,4.079895
2023-03-11T08:00:43.085Z,4.190674
2023-03-11T08:01:51.830Z,4.321594
2023-03-11T08:03:01.531Z,4.442444
2023-03-11T08:04:09.192Z,4.563293
2023-03-11T08:05:25.968Z,4.623718
2023-03-11T08:06:35.648Z,4.553223
2023-03-11T08:07:44.312Z,4.714355
2023-03-11T08:08:54.154Z,4.935913
2023-03-11T08:10:04.029Z,4.89563
2023-03-11T08:11:11.685Z,4.835205
2023-03-11T08:12:21.459Z,5.016479
2023-03-11T08:13:30.147Z,5.248108
2023-03-11T08:14:38.786Z,5.459595
2023-03-11T08:15:48.596Z,5.661011
2023-03-11T08:16:56.216Z,5.711365
2023-03-11T08:18:05.894Z,5.761719
2023-03-11T08:19:14.608Z,5.661011
2023-03-11T08:20:23.329Z,5.892639
2023-03-11T08:21:33.009Z,6.194763
2023-03-11T08:22:52.006Z,6.204834
2023-03-11T08:23:53.306Z,6.124268
2023-03-11T08:25:03.002Z,6.013489
2023-03-11T08:26:11.678Z,5.842285
2023-03-11T08:27:21.312Z,5.802002
2023-03-11T08:28:29.956Z,5.65094
2023-03-11T08:29:38.629Z,5.439453
2023-03-11T08:30:48.366Z,5.348816
2023-03-11T08:31:55.966Z,5.318604
2023-03-11T08:33:04.637Z,5.409241
2023-03-11T08:34:14.301Z,5.459595
2023-03-11T08:35:22.009Z,5.348816
2023-03-11T08:36:31.673Z,5.298462
2023-03-11T08:37:40.365Z,5.318604
2023-03-11T08:38:48.073Z,5.258179
2023-03-11T08:39:57.681Z,5.509949
2023-03-11T08:41:06.387Z,5.65094
2023-03-11T08:42:16.069Z,5.791931
2023-03-11T08:43:24.759Z,5.90271
2023-03-11T08:44:33.463Z,5.892639
2023-03-11T08:45:43.146Z,5.248108
2023-03-11T08:46:52.806Z,4.956055
2023-03-11T08:48:02.467Z,5.036621
2023-03-11T08:49:12.137Z,4.966125
2023-03-11T08:50:20.791Z,4.885559
2023-03-11T08:51:29.530Z,4.714355
2023-03-11T08:52:39.225Z,4.704285
2023-03-11T08:53:47.872Z,4.623718
2023-03-11T08:54:56.568Z,4.593506
2023-03-11T08:56:06.276Z,4.815063
2023-03-11T08:57:15.937Z,4.804993
2023-03-11T08:58:25.624Z,4.865417
2023-03-11T08:59:35.275Z,5.097046
2023-03-11T09:00:43.991Z,5.358887
2023-03-11T09:01:53.666Z,5.469666
2023-03-11T09:03:03.385Z,5.389099
2023-03-11T09:04:10.968Z,5.27832
2023-03-11T09:05:20.639Z,5.469666
2023-03-11T09:06:29.341Z,5.27832
2023-03-11T09:07:39.009Z,5.016479
2023-03-11T09:08:48.665Z,4.986267
2023-03-11T09:09:57.349Z,5.046692
2023-03-11T09:11:07.038Z,5.439453
2023-03-11T09:12:16.709Z,5.348816
2023-03-11T09:13:26.462Z,5.288391
2023-03-11T09:14:37.212Z,5.379028
2023-03-11T09:15:45.824Z,5.066833
2023-03-11T09:16:55.503Z,4.915771
2023-03-11T09:18:05.177Z,5.036621
2023-03-11T09:19:12.845Z,4.835205
2023-03-11T09:20:22.514Z,4.422302
2023-03-11T09:21:31.216Z,4.160461
2023-03-11T09:22:39.943Z,3.938904
2023-03-11T09:23:49.576Z,4.100037
2023-03-11T09:24:58.271Z,4.442444
2023-03-11T09:26:06.918Z,4.754639
2023-03-11T09:27:16.648Z,5.016479
2023-03-11T09:28:24.307Z,5.27832
2023-03-11T09:29:33.962Z,5.469666
2023-03-11T09:30:42.673Z,5.912781
2023-03-11T09:31:51.402Z,5.983276
2023-03-11T09:33:00.985Z,5.993347
2023-03-11T09:34:09.638Z,5.912781
2023-03-11T09:35:18.277Z,5.53009
2023-03-11T09:36:27.963Z,5.046692
2023-03-11T09:37:37.641Z,5.036621
2023-03-11T09:38:46.370Z,4.865417
2023-03-11T09:39:55.036Z,5.016479
2023-03-11T09:41:03.837Z,5.248108
2023-03-11T09:42:12.575Z,5.469666
2023-03-11T09:43:21.209Z,5.590515
2023-03-11T09:44:30.908Z,5.761719
2023-03-11T09:45:40.570Z,5.439453
2023-03-11T09:46:49.395Z,5.197754
2023-03-11T09:47:59.002Z,5.258179
2023-03-11T09:49:07.669Z,5.409241
2023-03-11T09:50:16.313Z,5.832214
2023-03-11T09:51:26.018Z,6.224976
2023-03-11T09:52:33.776Z,6.386108
2023-03-11T09:53:43.492Z,6.738586
2023-03-11T09:54:53.140Z,6.597595
2023-03-11T09:56:01.829Z,6.960144
2023-03-11T09:57:11.634Z,7.131348
2023-03-11T09:58:20.301Z,7.28241
2023-03-11T09:59:27.975Z,7.352905
2023-03-11T10:00:36.651Z,7.362976
2023-03-11T10:01:45.426Z,7.111206
2023-03-11T10:02:55.165Z,6.77887
2023-03-11T10:04:04.639Z,6.174622
2023-03-11T10:05:13.323Z,6.40625
2023-03-11T10:06:22.965Z,6.144409
2023-03-11T10:07:31.781Z,6.083984
2023-03-11T10:08:40.472Z,6.083984
2023-03-11T10:09:50.162Z,6.345825
2023-03-11T10:10:58.855Z,6.77887
2023-03-11T10:12:07.567Z,7.201843
2023-03-11T10:13:17.274Z,7.655029
2023-03-11T10:14:24.963Z,7.78595
2023-03-11T10:15:34.659Z,7.926941
2023-03-11T10:16:44.413Z,7.846375
2023-03-11T10:17:54.042Z,7.826233
2023-03-11T10:19:03.724Z,7.634888
2023-03-11T10:20:12.348Z,7.332764
2023-03-11T10:21:23.849Z,6.919861
2023-03-11T10:22:31.734Z,6.517029
2023-03-11T10:23:40.402Z,6.27533
2023-03-11T10:24:50.045Z,6.688232
2023-03-11T10:25:58.762Z,6.879578
2023-03-11T10:27:08.495Z,6.386108
2023-03-11T10:28:18.160Z,6.235046
2023-03-11T10:29:26.839Z,6.355896
2023-03-11T10:30:36.487Z,6.476746
2023-03-11T10:31:46.254Z,6.013489
2023-03-11T10:32:53.985Z,5.791931
2023-03-11T10:34:03.584Z,6.013489
2023-03-11T10:35:12.277Z,6.124268
2023-03-11T10:36:20.902Z,5.932922
2023-03-11T10:37:42.491Z,5.570374
2023-03-11T10:38:41.262Z,5.761719
2023-03-11T10:39:49.898Z,6.083984
2023-03-11T10:40:59.585Z,6.27533
2023-03-11T10:42:07.243Z,6.204834
2023-03-11T10:43:16.924Z,6.416321
2023-03-11T10:44:25.579Z,6.819153
2023-03-11T10:45:33.301Z,7.181702
2023-03-11T10:46:42.934Z,7.020569
2023-03-11T10:47:52.665Z,7.060852
2023-03-11T10:49:01.361Z,7.28241
2023-03-11T10:50:11.036Z,7.473755
2023-03-11T10:51:20.799Z,7.725525
2023-03-11T10:52:29.370Z,8.057861
2023-03-11T10:53:39.080Z,8.088074
2023-03-11T10:54:48.761Z,8.229065
2023-03-11T10:55:58.445Z,8.521118
2023-03-11T10:57:07.175Z,8.742676
2023-03-11T10:58:15.893Z,8.823242
2023-03-11T10:59:25.643Z,9.105225
2023-03-11T11:00:35.291Z,9.356995
2023-03-11T11:01:43.947Z,9.457703
2023-03-11T11:02:53.655Z,9.437561
2023-03-11T11:04:01.372Z,9.356995
2023-03-11T11:05:10.028Z,9.286499
2023-03-11T11:06:19.690Z,8.380127
2023-03-11T11:07:27.363Z,7.252197
2023-03-11T11:08:37.075Z,6.748657
2023-03-11T11:09:45.749Z,6.486816
2023-03-11T11:10:53.404Z,6.718445
2023-03-11T11:12:03.074Z,7.252197
2023-03-11T11:13:11.790Z,7.796021
2023-03-11T11:14:20.472Z,8.450623
2023-03-11T11:15:30.184Z,8.581543
2023-03-11T11:16:37.915Z,8.279419
2023-03-11T11:17:47.558Z,8.148499
2023-03-11T11:18:57.224Z,8.198853
2023-03-11T11:20:04.895Z,8.42041
2023-03-11T11:21:14.689Z,8.732605
2023-03-11T11:22:24.527Z,8.813171
2023-03-11T11:23:34.255Z,9.034729
2023-03-11T11:24:43.925Z,9.407349
2023-03-11T11:25:53.593Z,9.286499
2023-03-11T11:27:03.261Z,9.42749
2023-03-11T11:28:11.976Z,9.497986
2023-03-11T11:29:19.634Z,9.538269
2023-03-11T11:30:29.455Z,9.659119
2023-03-11T11:31:39.011Z,9.649048
2023-03-11T11:32:47.732Z,9.54834
2023-03-11T11:33:57.461Z,9.54834
2023-03-11T11:35:07.177Z,9.407349
2023-03-11T11:36:16.842Z,9.538269
2023-03-11T11:37:26.568Z,9.387207
2023-03-11T11:38:36.324Z,9.538269
2023-03-11T11:39:46.056Z,9.618835
2023-03-11T11:40:55.682Z,9.689331
2023-03-11T11:42:04.417Z,9.729614
2023-03-11T11:43:13.096Z,9.820251
2023-03-11T11:44:20.770Z,9.830322
2023-03-11T11:45:29.430Z,9.578552
2023-03-11T11:46:38.079Z,9.477844
2023-03-11T11:47:45.744Z,9.538269
2023-03-11T11:48:55.483Z,9.367065
2023-03-11T11:50:05.189Z,9.135437
2023-03-11T11:51:14.851Z,9.185791
2023-03-11T11:52:24.551Z,9.387207
2023-03-11T11:53:33.234Z,9.608765
2023-03-11T11:54:42.912Z,9.759827
2023-03-11T11:55:51.619Z,10.072021
2023-03-11T11:57:00.240Z,10.192871
2023-03-11T11:58:09.893Z,10.192871
2023-03-11T11:59:19.599Z,9.769897
2023-03-11T12:00:28.395Z,9.840393
2023-03-11T12:01:38.092Z,9.759827
2023-03-11T12:02:45.827Z,9.991455
2023-03-11T12:03:55.756Z,10.092163
2023-03-11T12:05:04.383Z,10.041809
2023-03-11T12:06:13.208Z,9.870605
2023-03-11T12:07:22.891Z,10.041809
2023-03-11T12:08:31.596Z,10.102234
2023-03-11T12:09:40.259Z,10.202942
2023-03-11T12:10:49.987Z,10.011597
2023-03-11T12:11:57.678Z,9.769897
2023-03-11T12:13:07.305Z,10.223083
2023-03-11T12:14:16.034Z,10.55542
2023-03-11T12:15:24.716Z,10.988464
2023-03-11T12:16:34.370Z,11.079102
2023-03-11T12:17:42.013Z,10.716553
2023-03-11T12:18:50.730Z,10.374146
2023-03-11T12:20:00.432Z,10.565491
2023-03-11T12:21:09.078Z,10.776978
2023-03-11T12:22:18.840Z,10.787048
2023-03-11T12:23:28.512Z,10.93811
2023-03-11T12:24:36.213Z,11.17981
2023-03-11T12:25:45.894Z,11.552429
2023-03-11T12:26:53.577Z,11.844482
2023-03-11T12:28:03.297Z,11.733704
2023-03-11T12:29:15.701Z,12.015686
2023-03-11T12:30:22.616Z,11.914978
2023-03-11T12:31:32.345Z,11.622925
2023-03-11T12:32:41.997Z,11.139526
2023-03-11T12:33:49.619Z,11.320801
2023-03-11T12:34:59.273Z,11.290588
2023-03-11T12:36:07.993Z,11.290588
2023-03-11T12:37:16.593Z,11.300659
2023-03-11T12:38:26.308Z,11.653137
2023-03-11T12:39:35.000Z,11.653137
2023-03-11T12:40:44.686Z,11.69342
2023-03-11T12:41:53.314Z,11.94519
2023-03-11T12:43:02.972Z,12.207031
2023-03-11T12:44:12.713Z,11.81427
2023-03-11T12:45:22.351Z,11.753845
2023-03-11T12:46:31.094Z,11.985474
2023-03-11T12:47:40.786Z,12.146606
2023-03-11T12:48:50.500Z,12.489014
2023-03-11T12:49:59.202Z,13.153687
2023-03-11T12:51:08.868Z,13.516235
2023-03-11T12:52:16.531Z,13.788147
2023-03-11T12:53:26.210Z,13.556519
2023-03-11T12:54:35.890Z,13.556519
2023-03-11T12:55:44.623Z,13.365173
2023-03-11T12:56:54.344Z,13.012695
2023-03-11T12:58:03.095Z,12.952271
2023-03-11T12:59:12.812Z,13.052979
2023-03-11T13:00:22.523Z,12.146606
2023-03-11T13:01:32.243Z,12.055969
2023-03-11T13:02:40.911Z,11.904907
2023-03-11T13:03:50.572Z,11.965332
2023-03-11T13:04:58.296Z,12.207031
2023-03-11T13:06:07.987Z,12.720642
2023-03-11T13:07:17.649Z,12.398376
2023-03-11T13:08:25.337Z,12.56958
2023-03-11T13:09:35.170Z,12.207031
2023-03-11T13:10:42.858Z,12.176819
2023-03-11T13:11:52.606Z,12.267456
2023-03-11T13:13:02.329Z,12.116394
2023-03-11T13:14:11.038Z,12.277527
2023-03-11T13:15:20.701Z,12.166748
2023-03-11T13:16:29.511Z,11.94519
2023-03-11T13:17:39.117Z,11.874695
2023-03-11T13:18:48.796Z,11.451721
2023-03-11T13:19:56.501Z,12.126465
2023-03-11T13:21:06.149Z,12.358093
2023-03-11T13:22:15.805Z,12.730713
2023-03-11T13:23:25.492Z,13.183899
2023-03-11T13:24:35.192Z,13.435669
2023-03-11T13:25:42.866Z,13.496094
2023-03-11T13:26:52.497Z,13.284607
2023-03-11T13:28:03.203Z,13.113403
2023-03-11T13:29:10.848Z,12.458801
2023-03-11T13:30:19.577Z,12.609863
2023-03-11T13:31:29.324Z,12.901917
2023-03-11T13:32:38.088Z,12.82135
2023-03-11T13:33:47.670Z,12.720642
2023-03-11T13:34:56.492Z,13.093262
2023-03-11T13:36:04.224Z,13.415527
2023-03-11T13:37:13.844Z,14.110413
2023-03-11T13:38:22.517Z,14.432678
2023-03-11T13:39:31.275Z,14.684448
2023-03-11T13:40:40.972Z,14.432678
2023-03-11T13:41:49.668Z,14.221191
2023-03-11T13:42:59.338Z,14.049988
2023-03-11T13:44:08.006Z,14.432678